NZ-0006 weather

CLOSED Arkwrights Airstrip/Dunsandel (Private)
Canterbury Region, New Zealand

Public forecast

Using degrees Celsius for public forecast. Weather courtesy of forecast.io.

Closest aviation weather report (METAR) to Arkwrights Airstrip/Dunsandel (Private)

Closest report is Christchurch International Airport, 21.3 nm (39.5 km) ENE. Retrieved 2019/12/08 02:30 UTC (12 minutes ago):

NZCH 080230Z AUTO 29014KT 250V330 9999 FEW070/// 22/06 Q1000 NOSIG

Closest aviation forecast (TAF) to Arkwrights Airstrip/Dunsandel (Private)

Closest forecast is Christchurch International Airport, 21.3 nm (39.5 km) ENE. Retrieved 2019-12-08 00:00 UTC (3 hours ago):

TAF NZCH 072300Z 0800/0900 32015G25KT 9999 -SHRA SCT040 PROB30 TEMPO 0806/0816 2000 TSRA SCT020CB BECMG 0808/0810 26005KT TEMPO 0808/0816 5000 SHRA FM081200 22015KT 9999 -SHRA SCT020 BKN060 BECMG 0813/0814 29005KT